Time;durP1;ratioP1;P1;durP2;ratioP2;P2;SDS_P1;SDS_P2;PMS_P1;PMS_P2;Temp;Humidity;BMP_temperature;BMP_pressure;BME280_temperature;BME280_humidity;BME280_pressure;Samples;Min_cycle;Max_cycle;Signal;HPM_P1;HPM_P2
2021/03/02 06:02:59;;;;;;;93.07;42.83;;;1.00;94.50;;;;;;5110130;27;20399;-58
2021/03/02 06:05:25;;;;;;;95.07;42.13;;;1.00;94.00;;;;;;5110879;28;20039;-58
2021/03/02 06:07:52;;;;;;;96.33;43.27;;;1.10;93.70;;;;;;5110419;28;20020;-57
2021/03/02 06:10:18;;;;;;;102.63;44.40;;;1.20;93.70;;;;;;5110830;28;20115;-58
2021/03/02 06:12:52;;;;;;;102.80;45.60;;;1.20;93.70;;;;;;5110461;28;20474;-58
2021/03/02 06:15:20;;;;;;;111.57;48.07;;;1.30;93.50;;;;;;5110390;28;20106;-58
2021/03/02 06:17:46;;;;;;;125.10;51.20;;;1.40;93.90;;;;;;5085005;28;20078;-59
2021/03/02 06:20:22;;;;;;;145.67;60.70;;;1.50;93.90;;;;;;5089150;28;20115;-59
2021/03/02 06:22:48;;;;;;;163.03;69.43;;;1.60;94.10;;;;;;5089972;28;20108;-59
2021/03/02 06:25:34;;;;;;;173.27;71.43;;;1.70;94.40;;;;;;5090238;28;20485;-58
2021/03/02 06:28:00;;;;;;;196.03;84.53;;;1.90;94.10;;;;;;5090111;28;20059;-59
2021/03/02 06:30:26;;;;;;;159.37;72.60;;;2.00;93.70;;;;;;5090219;28;20340;-59
2021/03/02 06:32:53;;;;;;;111.53;55.67;;;2.10;94.60;;;;;;5089921;28;20141;-59
2021/03/02 06:35:33;;;;;;;116.93;57.67;;;2.10;94.60;;;;;;5089965;28;20028;-59
2021/03/02 06:38:00;;;;;;;123.80;61.07;;;2.20;94.50;;;;;;5088668;28;20096;-58
2021/03/02 06:40:42;;;;;;;132.40;63.70;;;2.30;94.50;;;;;;5089628;28;20753;-59
2021/03/02 06:43:27;;;;;;;;;;;2.30;94.20;;;;;;5090707;28;20394;-59
2021/03/02 06:45:53;;;;;;;131.90;58.03;;;2.40;94.70;;;;;;5089862;28;20323;-62
2021/03/02 06:48:19;;;;;;;140.73;64.67;;;2.50;94.60;;;;;;5089760;28;20021;-64
2021/03/02 06:50:45;;;;;;;136.47;63.57;;;2.60;94.60;;;;;;5089402;28;20035;-62
2021/03/02 06:53:12;;;;;;;109.43;56.23;;;2.70;94.50;;;;;;5088249;28;20490;-62
2021/03/02 06:55:39;;;;;;;90.40;46.13;;;2.70;95.00;;;;;;5088231;28;20028;-61
2021/03/02 06:58:24;;;;;;;89.83;46.73;;;2.80;94.90;;;;;;5088190;28;20107;-62
2021/03/02 07:00:56;;;;;;;80.97;43.20;;;3.00;94.80;;;;;;5088763;28;20536;-62
2021/03/02 07:03:32;;;;;;;85.40;44.65;;;3.10;94.90;;;;;;5089257;28;20032;-63
2021/03/02 07:06:07;;;;;;;84.57;45.23;;;3.30;94.70;;;;;;5089344;28;20032;-62
2021/03/02 07:08:34;;;;;;;89.23;48.03;;;3.40;95.10;;;;;;5089245;28;20471;-63
2021/03/02 07:11:01;;;;;;;93.57;49.70;;;3.60;94.40;;;;;;5089347;28;20467;-63
2021/03/02 07:13:31;;;;;;;81.27;43.83;;;3.70;94.70;;;;;;5080694;28;20060;-63
2021/03/02 07:15:58;;;;;;;82.05;42.88;;;3.90;94.50;;;;;;5075748;28;20104;-66
2021/03/02 07:18:28;;;;;;;68.43;39.45;;;4.10;93.50;;;;;;5075067;28;20032;-63
2021/03/02 07:21:00;;;;;;;76.07;41.97;;;4.30;93.90;;;;;;5075385;28;20356;-64
2021/03/02 07:23:28;;;;;;;74.50;40.33;;;4.40;93.40;;;;;;5074287;28;20085;-64
2021/03/02 07:25:56;;;;;;;76.18;42.95;;;4.60;92.90;;;;;;5075464;28;20170;-63
2021/03/02 07:28:25;;;;;;;70.97;40.92;;;;;;;;;;5075373;28;20016;-61
2021/03/02 07:30:52;;;;;;;72.43;39.00;;;;;;;;;;5075328;28;20475;-62
2021/03/02 07:33:19;;;;;;;72.60;38.13;;;;;;;;;;5075252;28;20031;-62
2021/03/02 07:35:46;;;;;;;85.30;39.58;;;;;;;;;;5073968;28;20116;-63
2021/03/02 07:38:13;;;;;;;65.18;37.22;;;;;;;;;;5073873;28;20029;-63
2021/03/02 07:40:51;;;;;;;63.90;36.75;;;4.70;94.10;;;;;;5074877;28;20028;-64
2021/03/02 07:43:52;;;;;;;64.80;37.75;;;5.60;92.00;;;;;;5073486;28;20028;-65
2021/03/02 07:46:36;;;;;;;63.20;35.80;;;5.80;92.40;;;;;;5066562;28;20044;-63
2021/03/02 07:49:24;;;;;;;60.22;35.22;;;6.10;91.40;;;;;;5068174;28;20535;-64
2021/03/02 07:52:03;;;;;;;73.88;33.70;;;6.20;91.00;;;;;;5074422;28;20028;-64
2021/03/02 07:54:30;;;;;;;60.53;34.75;;;6.30;91.00;;;;;;5065826;28;20025;-64
2021/03/02 07:57:30;;;;;;;55.95;30.75;;;;;;;;;;5055340;28;20067;-63
2021/03/02 08:00:14;;;;;;;67.93;32.80;;;6.50;91.20;;;;;;5053450;28;20028;-61
2021/03/02 08:02:40;;;;;;;58.53;32.40;;;6.70;87.20;;;;;;5054834;28;20049;-61
2021/03/02 08:05:30;;;;;;;57.88;32.92;;;6.90;87.40;;;;;;5055181;28;20039;-61
2021/03/02 08:08:23;;;;;;;58.05;31.20;;;6.90;88.30;;;;;;5074420;28;20040;-67
2021/03/02 08:10:53;;;;;;;58.03;30.75;;;;;;;;;;5074538;28;20029;-64
2021/03/02 08:13:39;;;;;;;49.38;28.73;;;;;;;;;;5074935;28;20052;-64
2021/03/02 08:16:06;;;;;;;48.28;28.50;;;;;;;;;;5072878;28;20502;-64
2021/03/02 08:18:36;;;;;;;46.28;27.02;;;;;;;;;;5074344;28;20032;-65
2021/03/02 08:21:08;;;;;;;46.47;26.65;;;;;;;;;;5073946;28;20061;-65
2021/03/02 08:23:45;;;;;;;44.30;24.48;;;;;;;;;;5069081;28;20025;-61
2021/03/02 08:26:33;;;;;;;43.00;24.35;;;7.10;86.20;;;;;;5071353;28;20024;-62
2021/03/02 08:29:15;;;;;;;46.00;25.05;;;8.30;80.70;;;;;;5073102;28;20111;-64
2021/03/02 08:31:46;;;;;;;42.75;26.17;;;8.60;81.00;;;;;;5074387;28;20028;-65
2021/03/02 08:34:15;;;;;;;43.55;26.33;;;8.70;79.00;;;;;;5073840;28;20048;-64
2021/03/02 08:36:41;;;;;;;51.13;25.27;;;8.90;79.40;;;;;;5074058;28;20036;-64
2021/03/02 08:39:10;;;;;;;38.45;23.02;;;9.10;78.80;;;;;;5072754;28;20123;-66
2021/03/02 08:41:45;;;;;;;44.55;26.45;;;9.20;74.80;;;;;;5074116;28;20032;-67
2021/03/02 08:44:22;;;;;;;39.53;23.73;;;9.40;77.40;;;;;;5073954;28;20073;-61
2021/03/02 08:46:56;;;;;;;35.72;22.27;;;9.40;74.30;;;;;;5073964;28;20029;-63
2021/03/02 08:49:23;;;;;;;43.53;25.40;;;9.70;75.20;;;;;;5073850;28;20029;-61
2021/03/02 08:51:57;;;;;;;40.60;24.35;;;9.80;72.90;;;;;;5073911;28;20487;-61
2021/03/02 08:54:23;;;;;;;40.15;23.77;;;9.90;70.10;;;;;;5073507;28;20036;-62
2021/03/02 08:56:58;;;;;;;45.13;25.23;;;;;;;;;;5073774;28;20356;-62
2021/03/02 08:59:28;;;;;;;37.20;23.10;;;;;;;;;;5073906;28;20033;-61
2021/03/02 09:01:56;;;;;;;42.63;24.52;;;;;;;;;;5071134;28;20390;-65
2021/03/02 09:04:24;;;;;;;37.08;22.23;;;;;;;;;;5054168;28;20021;-64
2021/03/02 09:06:52;;;;;;;37.00;22.42;;;10.00;72.40;;;;;;5053545;28;20518;-63
2021/03/02 09:09:22;;;;;;;45.78;23.73;;;10.60;66.90;;;;;;5080139;28;20024;-63
2021/03/02 09:11:51;;;;;;;164.07;33.30;;;10.80;67.90;;;;;;5069895;28;20041;-65
2021/03/02 09:14:18;;;;;;;101.65;26.90;;;10.90;70.10;;;;;;5053176;28;20449;-67
2021/03/02 09:16:48;;;;;;;46.03;25.35;;;11.00;67.10;;;;;;5070848;28;20032;-67
2021/03/02 09:19:20;;;;;;;59.08;26.42;;;11.20;68.30;;;;;;5071880;28;20025;-74
2021/03/02 09:21:48;;;;;;;;;;;11.20;65.80;;;;;;5073704;28;20104;-72
2021/03/02 09:24:19;;;;;;;135.80;27.73;;;11.40;66.80;;;;;;5073265;28;19915;-68
2021/03/02 09:26:57;;;;;;;53.22;25.33;;;11.40;67.80;;;;;;5071816;28;20078;-73
2021/03/02 09:29:26;;;;;;;41.13;23.60;;;11.60;66.10;;;;;;5073330;28;20024;-68
2021/03/02 09:31:55;;;;;;;43.63;24.50;;;11.60;64.40;;;;;;5073203;28;20036;-72
2021/03/02 09:34:21;;;;;;;36.80;22.27;;;11.80;63.90;;;;;;5071517;28;20072;-71
2021/03/02 09:36:47;;;;;;;37.45;19.17;;;11.90;62.90;;;;;;5071258;28;20071;-68
2021/03/02 09:39:23;;;;;;;35.63;23.15;;;12.00;61.30;;;;;;5071506;28;20025;-64
2021/03/02 09:41:49;;;;;;;26.90;17.77;;;11.90;61.70;;;;;;5072914;28;20059;-64
2021/03/02 09:44:18;;;;;;;40.35;21.52;;;12.10;60.20;;;;;;5072748;28;20099;-61
2021/03/02 09:46:44;;;;;;;30.08;18.25;;;12.40;61.50;;;;;;5072824;28;20020;-63
2021/03/02 09:49:10;;;;;;;30.52;20.35;;;12.40;59.60;;;;;;5072928;28;20368;-63
2021/03/02 09:51:36;;;;;;;183.65;35.28;;;12.60;60.80;;;;;;5072947;28;20029;-63
2021/03/02 09:54:28;;;;;;;30.50;19.50;;;12.90;59.30;;;;;;5072925;28;20031;-62
2021/03/02 09:57:01;;;;;;;31.83;19.63;;;;;;;;;;5069880;28;20037;-65
2021/03/02 09:59:28;;;;;;;43.00;19.33;;;;;;;;;;5072308;28;20029;-66
2021/03/02 10:01:55;;;;;;;29.65;19.02;;;;;;;;;;5072399;28;20048;-63
2021/03/02 10:04:22;;;;;;;35.20;19.88;;;;;;;;;;5072656;28;20467;-64
2021/03/02 10:06:49;;;;;;;33.10;19.98;;;12.80;59.90;;;;;;5081876;28;20475;-65
2021/03/02 10:09:25;;;;;;;27.25;18.35;;;13.60;63.10;;;;;;5081666;28;20132;-62
2021/03/02 10:12:20;;;;;;;36.42;19.77;;;13.70;66.70;;;;;;5079590;28;20066;-60
2021/03/02 10:14:46;;;;;;;32.33;20.10;;;13.80;72.60;;;;;;5054015;28;20384;-63
2021/03/02 10:17:12;;;;;;;31.23;20.92;;;13.50;55.50;;;;;;5072778;28;20031;-61
2021/03/02 10:19:38;;;;;;;33.85;19.65;;;13.50;56.10;;;;;;5072787;28;20039;-61
2021/03/02 10:22:17;;;;;;;24.00;15.98;;;13.90;55.80;;;;;;5072687;28;20066;-63
2021/03/02 10:24:44;;;;;;;28.95;17.60;;;14.10;55.00;;;;;;5072720;28;20101;-60
2021/03/02 10:27:17;;;;;;;23.20;15.95;;;;;;;;;;5072982;28;20025;-62
2021/03/02 10:29:47;;;;;;;27.77;18.67;;;;;;;;;;5072390;28;20078;-60
2021/03/02 10:32:14;;;;;;;27.45;16.83;;;13.90;54.50;;;;;;5072557;28;20025;-61
2021/03/02 10:34:41;;;;;;;33.75;20.50;;;;;;;;;;5072232;28;20025;-61
2021/03/02 10:37:08;;;;;;;31.05;19.42;;;14.70;50.40;;;;;;5072655;28;20028;-67
2021/03/02 10:39:35;;;;;;;79.88;24.33;;;;;;;;;;5071216;28;20024;-63
2021/03/02 10:42:03;;;;;;;31.00;16.65;;;;;;;;;;5072240;28;20102;-62
2021/03/02 10:44:29;;;;;;;29.67;19.02;;;;;;;;;;5072761;28;20074;-61
2021/03/02 10:46:55;;;;;;;28.02;18.73;;;;;;;;;;5071112;28;20070;-62
2021/03/02 10:49:21;;;;;;;30.48;18.55;;;15.80;49.70;;;;;;5075569;28;20032;-64
2021/03/02 10:51:48;;;;;;;37.53;18.88;;;;;;;;;;5075955;28;20425;-61
2021/03/02 10:54:14;;;;;;;28.42;19.30;;;18.60;42.80;;;;;;5076136;28;20024;-63
2021/03/02 10:56:39;;;;;;;24.92;17.55;;;18.90;41.80;;;;;;5076007;28;20376;-63
2021/03/02 10:59:06;;;;;;;27.00;17.90;;;19.60;40.30;;;;;;5075882;28;20029;-61
2021/03/02 11:01:32;;;;;;;32.33;17.63;;;19.60;39.50;;;;;;5075029;28;20048;-64
2021/03/02 11:03:58;;;;;;;31.83;17.50;;;19.90;39.10;;;;;;5075726;28;20032;-62
2021/03/02 11:06:25;;;;;;;25.50;16.85;;;19.80;38.20;;;;;;5075545;28;20360;-63
2021/03/02 11:08:54;;;;;;;27.58;16.60;;;20.50;38.50;;;;;;5075865;28;20024;-63
2021/03/02 11:11:20;;;;;;;24.90;15.77;;;21.50;36.70;;;;;;5083053;28;20032;-61
2021/03/02 11:13:48;;;;;;;25.33;14.63;;;21.80;34.70;;;;;;5096059;28;20107;-62
2021/03/02 11:16:15;;;;;;;22.42;15.18;;;21.50;34.50;;;;;;5096009;28;20024;-61
2021/03/02 11:18:41;;;;;;;25.45;16.13;;;;;;;;;;5096040;28;20379;-62
2021/03/02 11:21:09;;;;;;;25.63;15.27;;;;;;;;;;5094856;28;20055;-62
2021/03/02 11:23:35;;;;;;;22.23;15.25;;;;;;;;;;5090947;28;20076;-61
2021/03/02 11:26:01;;;;;;;20.48;13.20;;;;;;;;;;5071587;28;20082;-62
2021/03/02 11:28:28;;;;;;;18.35;13.32;;;;;;;;;;5075093;28;20021;-61
2021/03/02 11:30:54;;;;;;;24.65;14.27;;;;;;;;;;5073987;28;20100;-62
2021/03/02 11:33:20;;;;;;;20.95;13.68;;;;;;;;;;5073510;28;20016;-62
2021/03/02 11:35:46;;;;;;;23.70;16.60;;;;;;;;;;5075600;28;20532;-63
2021/03/02 11:38:13;;;;;;;15.45;10.63;;;;;;;;;;5075221;28;20024;-62
2021/03/02 11:40:39;;;;;;;16.52;10.88;;;;;;;;;;5071867;28;20044;-62
2021/03/02 11:43:05;;;;;;;13.95;10.88;;;22.60;30.00;;;;;;5074977;28;20103;-64
2021/03/02 11:45:36;;;;;;;23.10;16.02;;;21.70;30.40;;;;;;5075253;28;20033;-61
2021/03/02 11:48:04;;;;;;;14.18;10.18;;;21.00;33.90;;;;;;5075205;28;20028;-61
2021/03/02 11:50:30;;;;;;;76.97;12.18;;;21.30;31.30;;;;;;5075281;28;20074;-61
2021/03/02 11:52:56;;;;;;;22.38;10.80;;;24.80;28.70;;;;;;5075136;28;20532;-61
2021/03/02 11:55:22;;;;;;;15.10;10.18;;;25.40;28.50;;;;;;5074280;28;20028;-61
2021/03/02 11:57:47;;;;;;;17.58;9.82;;;26.40;29.10;;;;;;5075095;28;20416;-65
2021/03/02 12:00:17;;;;;;;14.10;9.77;;;27.20;27.30;;;;;;5074951;28;20024;-64
2021/03/02 12:02:44;;;;;;;13.13;9.75;;;;;;;;;;5074867;28;20570;-63
2021/03/02 12:05:10;;;;;;;13.23;9.63;;;;;;;;;;5069274;28;20422;-65
2021/03/02 12:07:36;;;;;;;11.65;8.88;;;;;;;;;;5055057;28;20110;-65
2021/03/02 12:10:07;;;;;;;11.95;8.90;;;;;;;;;;5069305;28;20109;-65
2021/03/02 12:12:33;;;;;;;14.73;9.00;;;;;;;;;;5074505;28;20033;-64
2021/03/02 12:14:59;;;;;;;12.10;9.25;;;;;;;;;;5074683;28;20032;-65
2021/03/02 12:17:25;;;;;;;13.40;9.13;;;;;;;;;;5074543;28;20431;-62
2021/03/02 12:19:52;;;;;;;10.15;7.90;;;;;;;;;;5074594;28;20051;-65
2021/03/02 12:22:18;;;;;;;23.00;8.52;;;24.70;26.20;;;;;;5072858;28;20027;-62
2021/03/02 12:24:43;;;;;;;13.43;8.60;;;24.70;27.20;;;;;;5074042;28;20040;-63
2021/03/02 12:27:09;;;;;;;10.23;7.63;;;25.10;27.80;;;;;;5074506;28;20036;-65
2021/03/02 12:29:35;;;;;;;18.80;8.82;;;24.80;27.20;;;;;;5074254;28;20067;-62
2021/03/02 12:32:01;;;;;;;8.80;7.13;;;24.50;27.50;;;;;;5073197;28;20064;-66
2021/03/02 12:34:27;;;;;;;500.42;318.02;;;25.20;26.70;;;;;;5072966;28;20056;-65
2021/03/02 12:36:55;;;;;;;20.17;13.38;;;25.20;27.50;;;;;;5073907;28;20048;-66
2021/03/02 12:39:20;;;;;;;10.07;7.85;;;26.60;27.60;;;;;;5073873;28;20093;-66
2021/03/02 12:41:46;;;;;;;12.43;8.98;;;27.80;27.20;;;;;;5072741;28;20123;-65
2021/03/02 12:44:12;;;;;;;33.35;12.90;;;28.40;26.20;;;;;;5072836;28;20039;-65
2021/03/02 12:46:38;;;;;;;20.02;7.80;;;26.60;25.40;;;;;;5070446;28;20032;-64
2021/03/02 12:49:04;;;;;;;9.98;7.13;;;26.20;26.60;;;;;;5065111;28;20074;-64
2021/03/02 12:51:31;;;;;;;10.77;7.63;;;27.50;26.90;;;;;;5073932;28;20107;-63
2021/03/02 12:53:56;;;;;;;17.63;11.07;;;27.90;26.30;;;;;;5072755;28;20429;-63
2021/03/02 12:56:23;;;;;;;12.50;8.07;;;27.80;25.70;;;;;;5074159;28;20143;-64
2021/03/02 12:58:49;;;;;;;8.48;6.50;;;28.10;26.30;;;;;;5073886;28;20159;-65
2021/03/02 13:01:14;;;;;;;11.25;7.88;;;27.00;25.80;;;;;;5071883;28;20135;-63
2021/03/02 13:03:43;;;;;;;13.27;9.65;;;25.30;26.80;;;;;;5073750;28;20053;-62
2021/03/02 13:06:10;;;;;;;12.73;8.10;;;25.90;26.80;;;;;;5073359;28;20471;-63
2021/03/02 13:08:37;;;;;;;10.30;7.90;;;25.40;27.10;;;;;;5073523;28;20029;-63
2021/03/02 13:11:04;;;;;;;9.95;7.18;;;25.50;26.80;;;;;;5071889;28;20137;-61
2021/03/02 13:13:34;;;;;;;9.68;7.70;;;23.20;28.40;;;;;;5073523;28;20028;-61
2021/03/02 13:16:02;;;;;;;10.13;7.35;;;22.30;29.30;;;;;;5071255;28;20459;-62
2021/03/02 13:18:28;;;;;;;11.95;7.45;;;22.50;31.10;;;;;;5064353;28;20025;-63
2021/03/02 13:20:59;;;;;;;11.45;7.43;;;23.40;29.30;;;;;;5052761;28;20519;-63
2021/03/02 13:23:25;;;;;;;8.90;7.20;;;24.40;29.40;;;;;;5051436;28;20025;-63
2021/03/02 13:25:54;;;;;;;9.57;7.57;;;24.80;28.00;;;;;;5078037;28;20066;-64
2021/03/02 13:28:59;;;;;;;13.98;7.85;;;;;;;;;;5057687;28;20025;-65
2021/03/02 13:31:25;;;;;;;8.15;7.07;;;25.40;27.40;;;;;;5004960;28;20034;-64
2021/03/02 13:33:53;;;;;;;29.88;19.13;;;24.50;27.60;;;;;;5011022;28;20042;-63
2021/03/02 13:36:20;;;;;;;23.13;13.77;;;22.90;29.20;;;;;;5011114;28;20040;-63
2021/03/02 13:38:48;;;;;;;14.55;8.25;;;21.90;32.10;;;;;;5011226;28;20437;-64
2021/03/02 13:41:14;;;;;;;15.60;9.13;;;20.20;35.50;;;;;;5010910;28;20030;-66
2021/03/02 13:43:43;;;;;;;10.05;6.95;;;20.10;37.00;;;;;;5011019;28;20046;-65
2021/03/02 13:46:09;;;;;;;11.13;7.82;;;19.70;36.20;;;;;;5010922;28;20061;-67
2021/03/02 13:48:35;;;;;;;13.48;9.48;;;19.20;36.90;;;;;;5010997;28;20037;-63
2021/03/02 13:51:02;;;;;;;11.50;7.95;;;;;;;;;;5010969;28;20034;-63
2021/03/02 13:53:31;;;;;;;14.55;10.40;;;;;;;;;;5007975;28;20042;-62
2021/03/02 13:55:58;;;;;;;17.13;13.05;;;18.90;37.20;;;;;;5010837;28;20030;-63
2021/03/02 13:58:25;;;;;;;11.63;8.10;;;19.50;35.80;;;;;;4994298;28;20405;-63
2021/03/02 14:00:53;;;;;;;9.35;7.15;;;20.80;33.80;;;;;;5010459;28;20033;-62
2021/03/02 14:03:20;;;;;;;11.60;7.88;;;20.20;34.50;;;;;;5010917;28;20026;-63
2021/03/02 14:05:46;;;;;;;12.88;8.70;;;19.50;35.40;;;;;;5038124;28;20037;-63
2021/03/02 14:08:13;;;;;;;12.70;7.80;;;19.70;35.30;;;;;;5050736;28;20451;-62
2021/03/02 14:10:39;;;;;;;11.45;8.52;;;19.90;34.90;;;;;;5051194;28;20510;-64
2021/03/02 14:13:05;;;;;;;11.10;8.15;;;20.20;35.00;;;;;;5068637;28;20029;-63
2021/03/02 14:15:35;;;;;;;14.68;8.25;;;20.90;34.40;;;;;;5072287;28;20039;-64
2021/03/02 14:18:01;;;;;;;11.70;8.75;;;21.90;32.20;;;;;;5072670;28;20530;-63
2021/03/02 14:20:28;;;;;;;16.77;9.45;;;;;;;;;;5071914;28;20033;-62
2021/03/02 14:22:55;;;;;;;13.75;8.43;;;19.40;34.90;;;;;;5079408;28;20043;-63
2021/03/02 14:25:22;;;;;;;11.32;7.78;;;;;;;;;;5096916;28;20036;-64
2021/03/02 14:27:48;;;;;;;10.55;8.10;;;;;;;;;;5096858;28;20032;-63
2021/03/02 14:30:17;;;;;;;34.58;9.48;;;19.10;35.80;;;;;;5096809;28;20024;-64
2021/03/02 14:32:44;;;;;;;11.57;8.35;;;;;;;;;;5096275;28;20404;-63
2021/03/02 14:35:11;;;;;;;12.93;7.78;;;;;;;;;;5093924;28;20459;-62
2021/03/02 14:37:38;;;;;;;10.10;7.57;;;18.80;36.20;;;;;;5096742;28;20069;-63
2021/03/02 14:40:05;;;;;;;13.52;8.30;;;;;;;;;;5094940;28;20021;-62
2021/03/02 14:42:32;;;;;;;12.25;8.52;;;;;;;;;;5096426;28;20028;-62
2021/03/02 14:45:03;;;;;;;14.30;9.02;;;;;;;;;;5096567;28;20024;-63
2021/03/02 14:47:47;;;;;;;12.32;7.97;;;;;;;;;;5096365;28;20115;-61
2021/03/02 14:50:18;;;;;;;11.73;9.05;;;18.10;37.30;;;;;;5096114;28;20028;-62
2021/03/02 14:52:44;;;;;;;16.73;9.55;;;19.10;37.40;;;;;;5096556;28;20028;-61
2021/03/02 14:55:10;;;;;;;13.98;8.35;;;17.70;37.90;;;;;;5095219;28;20492;-63
2021/03/02 14:57:39;;;;;;;16.25;9.98;;;;;;;;;;5083478;28;20025;-60
2021/03/02 15:00:07;;;;;;;15.73;8.57;;;;;;;;;;5056108;28;20067;-62
2021/03/02 15:02:34;;;;;;;11.98;7.90;;;16.60;39.80;;;;;;5060117;28;20048;-61
2021/03/02 15:05:01;;;;;;;22.65;12.02;;;;;;;;;;5064008;28;20464;-62
2021/03/02 15:07:27;;;;;;;26.27;13.95;;;;;;;;;;5055832;28;20052;-62
2021/03/02 15:09:54;;;;;;;15.10;9.20;;;16.00;41.20;;;;;;5054855;28;20067;-62
2021/03/02 15:12:23;;;;;;;11.73;8.48;;;15.40;43.90;;;;;;5056088;28;20098;-63
2021/03/02 15:14:50;;;;;;;14.25;8.77;;;15.20;43.60;;;;;;5055784;28;20032;-62
2021/03/02 15:17:24;;;;;;;16.30;8.15;;;15.00;45.10;;;;;;5055871;28;20071;-62
2021/03/02 15:19:50;;;;;;;12.15;8.30;;;15.00;43.60;;;;;;5055832;28;20020;-62
2021/03/02 15:22:18;;;;;;;14.20;8.68;;;;;;;;;;5055632;28;20032;-63
2021/03/02 15:24:46;;;;;;;14.82;8.48;;;15.00;44.10;;;;;;5081737;28;20099;-62
2021/03/02 15:27:15;;;;;;;17.73;11.30;;;15.30;44.70;;;;;;5077551;28;20020;-62
2021/03/02 15:29:42;;;;;;;20.15;11.65;;;;;;;;;;5075442;28;20047;-62
2021/03/02 15:32:12;;;;;;;19.40;11.25;;;;;;;;;;5057622;28;20029;-62
2021/03/02 15:34:41;;;;;;;16.23;10.18;;;;;;;;;;5065738;28;20029;-63
2021/03/02 15:37:09;;;;;;;18.42;9.60;;;15.20;44.60;;;;;;5066745;28;20060;-61
2021/03/02 15:39:39;;;;;;;13.40;8.05;;;15.00;45.00;;;;;;5075496;28;20036;-63
2021/03/02 15:42:05;;;;;;;10.95;8.32;;;14.90;45.40;;;;;;5075288;28;20475;-63
2021/03/02 15:44:31;;;;;;;14.25;8.27;;;14.80;46.80;;;;;;5074458;28;20078;-62
2021/03/02 15:46:58;;;;;;;15.60;8.30;;;14.60;46.70;;;;;;5055354;28;20048;-64
2021/03/02 15:49:27;;;;;;;15.70;8.27;;;;;;;;;;5055395;28;20017;-63
2021/03/02 15:51:53;;;;;;;16.95;9.98;;;14.70;46.80;;;;;;5055480;28;20082;-64
2021/03/02 15:54:19;;;;;;;20.58;10.02;;;14.40;46.70;;;;;;5055314;28;20036;-63
2021/03/02 15:56:45;;;;;;;14.70;10.23;;;14.50;48.20;;;;;;5055256;28;20056;-63
2021/03/02 15:59:11;;;;;;;17.17;9.48;;;14.50;47.30;;;;;;5053811;28;20392;-64
2021/03/02 16:01:44;;;;;;;15.48;8.70;;;14.40;46.80;;;;;;5054726;28;20048;-64
2021/03/02 16:04:22;;;;;;;24.52;11.45;;;14.20;47.30;;;;;;5055028;28;20035;-63
2021/03/02 16:06:58;;;;;;;21.70;11.18;;;14.10;48.70;;;;;;5053504;28;20029;-64
2021/03/02 16:09:42;;;;;;;23.40;10.45;;;14.00;49.40;;;;;;5053755;28;20017;-63
